Terminal Aerodrome Forecast
Issued by NWS

Home | Current Version | Previous Version | Text Only | Print | Product List | Glossary Off
Versions: 1 2 3 4 5 6 7 8 9 10 11 12 13 14 15 16 17

000
FTUS43 KMPX 181500 AAB
TAFRNH
TAF AMD
KRNH 181552Z 1816/1912 14007KT P6SM OVC004
     FM181700 15007KT P6SM SCT050
     FM190800 15010G17KT 4SM BR OVC006=

USA.gov is the U.S. government's official web portal to all federal, state and local government web resources and services.